Cheshire, CT (06408)

6:23 AM EDT on March 28, 2015 (GMT -0400)
Rogers Orchards Sunnymount Farm | | Change Station
CLOSE
Current Station
Personal Weather Station
Location: Southington, CT
Elevation: 666 ft
Nearby Weather Stations

Elev 666 ft 41.56 °N, 72.94 °W | Updated 35 seconds ago

Overcast
Overcast
32.6 °F
Feels Like 33 °F
N
2.0
Wind Variable Wind from NW
Gusts 9.0 mph

Today
High -- | Low -- °F
--% Chance of Precip.
Yesterday
High -- | Low -- °F
Precip. -- in
6:41 AM 7:12 PM
First Quarter, 61% visible
Pressure 29.73 in
Visibility 10.0 miles
Clouds Mostly Cloudy 2700 ft
Mostly Cloudy 3300 ft
Overcast 5000 ft
Windchill 33 °F
Dew Point 29 °F
Humidity 86%
Rainfall 0.00 in
Snow Depth Not available.
UV 0 out of 12
Pollen 3.40 out of 12
Air Quality Not available.
Flu Activity Not available.
SPECI KMMK 281008Z AUTO 33006KT 10SM BKN027 BKN033 OVC050 02/M03 A2973 RMK AO2 T00221033 TSNO

More Conditions Fewer Conditions

Pressure 29.73 in
Visibility 10.0 miles
Clouds Mostly Cloudy 2700 ft
Mostly Cloudy 3300 ft
Overcast 5000 ft
Windchill 33 °F
Dew Point 29 °F
Humidity 86%
Rainfall 0.00 in
Snow Depth Not available.
UV 0 out of 12
Pollen 3.40 out of 12
Air Quality Not available.
Flu Activity Not available.
SPECI KMMK 281008Z AUTO 33006KT 10SM BKN027 BKN033 OVC050 02/M03 A2973 RMK AO2 T00221033 TSNO

More Conditions Fewer Conditions

10-Day Weather Forecast

Almanac

Astronomy

Mar. 28, 2015 Rise Set
Actual Time
Civil Twilight
Nautical Twilight
Astronomical Twilight
Moon
Length of Visible Light
Length of Day
Tomorrow will be .
, % of the Moon is Illuminated

Today's Extremes

State Highs State Lows

Community

WunderPhotos

Upload Photos

1,808,946 photos uploaded!

WunderBlogs® & News

Nearby

Air Quality

  Air Quality AQ Index Pollutant
Not available.

Snow Depth

Station Depth Elevation

Earthquake Activity

City Distance Mag. Time & Date
Minimum magnitude displayed is 2.5.

Coastal Water Temperatures

Place Temperature

Stations

Nearby Weather Stations

Station Location Temp. Windchill Dew Point Humidity Wind Precip. Elev Updated Type